メインページ
METAR-TAF:

METAR-TAF

空港 :

インディアナポリス, インディアナ州, アメリカ合衆国

インディアナポリス国際空港

緯度: 39-43-30N, 経度: 086-16-55W, 海抜: 243m

現時点の気象観測

当レポートは44分前の21:54(UTC)に作成
南/南東の風 6kt
気温 29°C
湿度 66%
気圧 1017 hPa
視程: 16.1km
高度4000ftの雲は散在している
高度19000ftの千切れ雲あり
高度25000ftの曇り

METAR: KIND 262154Z 15006KT 10SM SCT040 BKN190 OVC250 29/22 A3002 RMK AO2 SLP161 T02890217

時間: 18:38 (22:38 UTC)

予報

当レポートは2時間20分前の20:18(UTC)に作成
予報は26日の 20時(UTC)から 27日の 24時(UTC)まで有効
南東の風 5kt
視程: 10km
高度3500ftの雲は散在している
高度14000ftの雲は散在している
高度20000ftの曇り
27日の 0700時(UTC)から
南/南東の風 4kt
視程: 10km
高度6000ftの千切れ雲あり, 積乱雲.
近辺で激しい雷雨
27日の 1000時(UTC)から
南/南東の風 3kt
視程: 8.0km
高度6000ftの曇り, 積乱雲.
にわか雨, 近辺で激しい雷雨
27日の 1400時(UTC)から
の風 5kt
視程: 8.0km
高度2000ftの曇り, 積乱雲.
にわか雨, 近辺で激しい雷雨
27日の 1800時(UTC)から
西/南西の風 6kt
視程: 10km
高度2000ftの曇り
近辺でにわか雨
27日の 2200時(UTC)から
西の風 6kt
視程: 10km
高度4500ftの曇り

TAF: KIND 262018Z 2620/2724 13005KT P6SM SCT035 SCT140 OVC200 FM270700 16004KT P6SM VCTS BKN060CB FM271000 16003KT 5SM SHRA VCTS OVC060CB FM271400 18005KT 5SM SHRA VCTS OVC020CB FM271800 24006KT P6SM VCSH OVC020 FM272200 26006KT P6SM OVC045

4,000以上の空港の気象観測と天気予報(METAR報とTAF報)

利用可能な観測所は地図上に黄色い丸と赤い丸で示す。

丸の上にカーソルを重ねると観測所名を参照できる。

次にクリックすると気象観測と天気予報を参照できる。

マップの切り替え:黒色「×」印の緑ボタンをクリックして拡大、「-」印の緑ボタンをクリックして縮小、緑色の三角印をクリックして隣りの地図に切り替え


METAR-TAF: